createdAt,value
2018-07-01T00:02:03.354Z,18.00
2018-07-01T00:04:32.982Z,17.80
2018-07-01T00:07:02.661Z,17.90
2018-07-01T00:09:32.299Z,18.00
2018-07-01T00:12:01.950Z,17.80
2018-07-01T00:14:47.874Z,17.60
2018-07-01T00:17:17.565Z,17.50
2018-07-01T00:19:47.162Z,17.40
2018-07-01T00:22:16.846Z,17.30
2018-07-01T00:24:46.429Z,17.30
2018-07-01T00:27:16.031Z,17.40
2018-07-01T00:29:45.915Z,17.30
2018-07-01T00:32:15.618Z,17.30
2018-07-01T00:34:45.266Z,17.30
2018-07-01T00:37:14.898Z,17.30
2018-07-01T00:39:44.571Z,17.20
2018-07-01T00:42:14.199Z,17.20
2018-07-01T00:44:43.820Z,17.20
2018-07-01T00:47:13.462Z,17.20
2018-07-01T00:49:43.082Z,17.30
2018-07-01T00:52:12.681Z,17.20
2018-07-01T00:54:42.322Z,17.10
2018-07-01T00:57:11.982Z,17.10
2018-07-01T00:59:41.586Z,17.00
2018-07-01T01:02:11.222Z,16.90
2018-07-01T01:04:40.874Z,17.00
2018-07-01T01:07:10.478Z,16.90
2018-07-01T01:09:40.105Z,16.80
2018-07-01T01:12:09.706Z,16.90
2018-07-01T01:14:39.374Z,16.80
2018-07-01T01:17:09.011Z,16.80
2018-07-01T01:19:38.609Z,16.60
2018-07-01T01:22:08.314Z,16.60
2018-07-01T01:24:37.942Z,16.60
2018-07-01T01:27:07.595Z,16.60
2018-07-01T01:29:37.225Z,16.50
2018-07-01T01:32:06.929Z,16.40
2018-07-01T01:34:36.597Z,16.40
2018-07-01T01:37:06.295Z,16.40
2018-07-01T01:39:38.685Z,16.40
2018-07-01T01:42:12.490Z,16.30
2018-07-01T01:44:46.572Z,16.30
2018-07-01T01:47:23.284Z,16.30
2018-07-01T01:49:59.310Z,16.20
2018-07-01T01:52:41.634Z,16.10
2018-07-01T01:55:16.055Z,16.10
2018-07-01T01:58:06.978Z,16.20
2018-07-01T02:00:48.597Z,16.20
2018-07-01T02:03:23.440Z,16.20
2018-07-01T02:05:57.617Z,16.30
2018-07-01T02:08:32.141Z,16.10
2018-07-01T02:11:01.875Z,16.00
2018-07-01T02:13:32.609Z,15.90
2018-07-01T02:16:05.742Z,16.00
2018-07-01T02:18:35.375Z,15.90
2018-07-01T02:21:05.166Z,15.80
2018-07-01T02:23:38.286Z,15.80
2018-07-01T02:26:08.023Z,15.60
2018-07-01T02:28:37.799Z,15.80
2018-07-01T02:31:07.694Z,15.70
2018-07-01T02:33:37.399Z,15.70
2018-07-01T02:36:07.067Z,15.60
2018-07-01T02:38:36.641Z,15.60
2018-07-01T02:41:06.292Z,15.70
2018-07-01T02:43:35.912Z,15.60
2018-07-01T02:46:05.595Z,15.50
2018-07-01T02:48:35.210Z,15.50
2018-07-01T02:51:04.837Z,15.50
2018-07-01T02:53:34.513Z,15.50
2018-07-01T02:56:04.406Z,15.40
2018-07-01T02:58:34.174Z,15.50
2018-07-01T03:01:03.789Z,15.40
2018-07-01T03:03:33.396Z,15.30
2018-07-01T03:06:02.963Z,15.30
2018-07-01T03:08:32.594Z,15.20
2018-07-01T03:11:02.258Z,15.20
2018-07-01T03:13:31.890Z,15.20
2018-07-01T03:16:01.518Z,15.30
2018-07-01T03:18:31.269Z,15.40
2018-07-01T03:21:00.845Z,15.40
2018-07-01T03:23:30.434Z,15.30
2018-07-01T03:26:00.034Z,15.20
2018-07-01T03:28:29.650Z,15.10
2018-07-01T03:30:59.325Z,15.20
2018-07-01T03:33:28.952Z,15.10
2018-07-01T03:35:58.590Z,15.20
2018-07-01T03:38:28.242Z,15.20
2018-07-01T03:40:57.874Z,15.00
2018-07-01T03:43:27.497Z,15.10
2018-07-01T03:45:57.114Z,15.10
2018-07-01T03:48:26.749Z,15.10
2018-07-01T03:50:56.365Z,15.00
2018-07-01T03:53:26.042Z,15.00
2018-07-01T03:55:55.637Z,14.90
2018-07-01T03:58:25.286Z,14.90
2018-07-01T04:00:54.899Z,14.70
2018-07-01T04:03:24.523Z,14.80
2018-07-01T04:05:54.165Z,14.60
2018-07-01T04:08:23.810Z,14.50
2018-07-01T04:10:53.416Z,14.40
2018-07-01T04:13:23.067Z,14.40
2018-07-01T04:15:52.722Z,14.40
2018-07-01T04:18:22.314Z,14.40
2018-07-01T04:20:51.941Z,14.50
2018-07-01T04:23:21.553Z,14.60
2018-07-01T04:25:51.212Z,14.70
2018-07-01T04:28:20.797Z,14.60
2018-07-01T04:30:50.456Z,14.60
2018-07-01T04:33:20.090Z,14.70
2018-07-01T04:35:49.732Z,14.70
2018-07-01T04:38:19.360Z,14.80
2018-07-01T04:40:49.001Z,14.90
2018-07-01T04:43:18.602Z,15.00
2018-07-01T04:45:48.249Z,15.00
2018-07-01T04:48:17.902Z,15.00
2018-07-01T04:50:47.518Z,15.10
2018-07-01T04:53:17.160Z,15.10
2018-07-01T04:55:46.769Z,15.10
2018-07-01T04:58:16.405Z,15.10
2018-07-01T05:00:46.054Z,15.10
2018-07-01T05:03:15.677Z,15.30
2018-07-01T05:05:45.354Z,15.40
2018-07-01T05:08:14.995Z,15.50
2018-07-01T05:10:44.709Z,15.70
2018-07-01T05:13:14.351Z,15.70
2018-07-01T05:15:44.145Z,15.70
2018-07-01T05:18:13.786Z,15.60
2018-07-01T05:20:43.401Z,15.80
2018-07-01T05:23:13.002Z,15.80
2018-07-01T05:25:42.607Z,15.90
2018-07-01T05:28:12.273Z,15.90
2018-07-01T05:30:41.892Z,16.00
2018-07-01T05:33:11.482Z,16.00
2018-07-01T05:35:41.101Z,16.10
2018-07-01T05:38:10.674Z,16.20
2018-07-01T05:40:40.306Z,16.40
2018-07-01T05:43:10.044Z,16.40
2018-07-01T05:45:39.682Z,16.50
2018-07-01T05:48:09.298Z,16.50
2018-07-01T05:50:38.938Z,16.50
2018-07-01T05:53:08.578Z,16.60
2018-07-01T05:55:38.221Z,16.70
2018-07-01T05:58:07.833Z,16.80
2018-07-01T06:00:37.575Z,16.80
2018-07-01T06:03:07.250Z,16.90
2018-07-01T06:05:36.906Z,17.10
2018-07-01T06:08:06.678Z,17.10
2018-07-01T06:10:36.333Z,17.10
2018-07-01T06:13:06.018Z,17.30
2018-07-01T06:15:35.714Z,17.30
2018-07-01T06:18:05.429Z,17.40
2018-07-01T06:20:35.046Z,17.50
2018-07-01T06:23:04.687Z,17.60
2018-07-01T06:25:34.358Z,17.70
2018-07-01T06:28:03.986Z,17.70
2018-07-01T06:30:33.639Z,17.80
2018-07-01T06:33:03.255Z,17.90
2018-07-01T06:38:02.202Z,18.00
2018-07-01T06:40:31.834Z,18.20
2018-07-01T06:43:01.504Z,18.30
2018-07-01T06:45:31.223Z,18.30
2018-07-01T06:48:00.890Z,18.30
2018-07-01T06:50:30.481Z,18.40
2018-07-01T06:53:00.126Z,18.50
2018-07-01T06:55:29.761Z,18.60
2018-07-01T06:57:59.389Z,18.80
2018-07-01T07:00:29.012Z,18.80
2018-07-01T07:02:58.756Z,18.90
2018-07-01T07:05:28.377Z,18.90
2018-07-01T07:07:58.033Z,19.00
2018-07-01T07:10:27.681Z,19.10
2018-07-01T07:12:57.333Z,19.30
2018-07-01T07:15:26.998Z,19.40
2018-07-01T07:17:56.686Z,19.50
2018-07-01T07:20:26.413Z,19.70
2018-07-01T07:22:56.395Z,19.80
2018-07-01T07:25:26.023Z,19.60
2018-07-01T07:27:55.597Z,19.70
2018-07-01T07:30:25.241Z,19.90
2018-07-01T07:32:54.860Z,20.00
2018-07-01T07:35:24.509Z,20.00
2018-07-01T07:37:54.458Z,20.20
2018-07-01T07:40:24.134Z,20.20
2018-07-01T07:42:53.798Z,20.20
2018-07-01T07:45:42.955Z,20.30
2018-07-01T07:57:43.890Z,20.60
2018-07-01T08:00:15.558Z,20.60
2018-07-01T08:02:45.563Z,20.90
2018-07-01T08:05:15.332Z,20.90
2018-07-01T08:07:45.107Z,21.20
2018-07-01T08:10:15.046Z,21.20
2018-07-01T08:15:45.435Z,21.30
2018-07-01T08:18:15.426Z,21.50
2018-07-01T08:20:45.197Z,21.70
2018-07-01T08:23:15.041Z,21.60
2018-07-01T08:38:04.816Z,21.90
2018-07-01T08:40:41.804Z,22.40
2018-07-01T08:43:15.560Z,22.70
2018-07-01T08:48:45.235Z,22.70
2018-07-01T08:51:40.348Z,23.00
2018-07-01T08:54:11.817Z,23.10
2018-07-01T08:59:14.719Z,23.10
2018-07-01T09:04:45.765Z,23.20
2018-07-01T09:07:36.233Z,23.20
2018-07-01T09:10:12.315Z,23.40
2018-07-01T09:15:36.670Z,24.10
2018-07-01T09:18:12.323Z,24.10
2018-07-01T09:20:47.998Z,24.10
2018-07-01T09:23:28.292Z,24.00
2018-07-01T09:26:05.418Z,24.40
2018-07-01T09:28:42.778Z,24.60
2018-07-01T09:36:40.406Z,24.90
2018-07-01T09:39:28.660Z,25.10
2018-07-01T09:42:16.090Z,25.10
2018-07-01T09:44:48.500Z,24.80
2018-07-01T09:47:18.876Z,24.90
2018-07-01T09:51:08.379Z,24.30
2018-07-01T09:53:49.075Z,24.70
2018-07-01T09:56:33.779Z,24.80
2018-07-01T09:59:03.916Z,24.70
2018-07-01T10:01:34.706Z,24.70
2018-07-01T10:04:04.581Z,24.90
2018-07-01T10:06:34.577Z,25.00
2018-07-01T10:25:32.065Z,25.00
2018-07-01T10:28:06.823Z,25.40
2018-07-01T10:36:24.858Z,26.00
2018-07-01T10:39:03.015Z,26.60
2018-07-01T10:41:53.345Z,26.30
2018-07-01T10:44:30.568Z,26.80
2018-07-01T10:47:32.491Z,26.30
2018-07-01T10:50:04.285Z,26.70
2018-07-01T10:52:34.343Z,26.40
2018-07-01T11:14:02.796Z,26.60
2018-07-01T11:27:03.134Z,27.20
2018-07-01T11:29:34.163Z,27.60
2018-07-01T11:32:06.052Z,26.70
2018-07-01T11:34:36.819Z,26.30
2018-07-01T11:37:06.903Z,26.40
2018-07-01T11:39:37.658Z,26.20
2018-07-01T11:42:07.755Z,26.90
2018-07-01T11:54:55.846Z,27.00
2018-07-01T12:00:41.587Z,27.20
2018-07-01T12:03:11.435Z,27.00
2018-07-01T12:05:41.511Z,27.20
2018-07-01T12:11:28.084Z,26.90
2018-07-01T12:14:04.095Z,26.70
2018-07-01T12:16:39.251Z,27.00
2018-07-01T12:19:37.297Z,27.40
2018-07-01T12:25:17.865Z,27.70
2018-07-01T12:32:38.123Z,27.80
2018-07-01T12:38:30.829Z,28.20
2018-07-01T12:44:19.804Z,28.30
2018-07-01T13:02:57.072Z,28.20
2018-07-01T13:21:28.820Z,28.60
2018-07-01T13:24:26.401Z,28.80
2018-07-01T13:27:04.535Z,28.60
2018-07-01T13:30:26.169Z,28.30
2018-07-01T13:33:16.345Z,28.40
2018-07-01T13:39:25.065Z,28.30
2018-07-01T13:50:28.622Z,28.20
2018-07-01T14:20:40.926Z,28.60
2018-07-01T14:23:24.624Z,28.70
2018-07-01T14:25:54.447Z,28.90
2018-07-01T14:33:21.584Z,28.90
2018-07-01T14:35:54.647Z,28.80
2018-07-01T14:38:25.121Z,29.00
2018-07-01T14:46:16.113Z,29.00
2018-07-01T14:49:17.605Z,29.10
2018-07-01T15:00:16.284Z,29.50
2018-07-01T15:03:15.411Z,29.50
2018-07-01T15:29:46.028Z,29.40
2018-07-01T15:32:18.361Z,29.20
2018-07-01T15:37:29.567Z,29.20
2018-07-01T15:40:20.155Z,29.10
2018-07-01T15:44:05.022Z,29.20
2018-07-01T15:47:12.528Z,29.60
2018-07-01T15:49:44.009Z,29.50
2018-07-01T15:52:14.275Z,29.20
2018-07-01T15:54:48.200Z,29.10
2018-07-01T16:00:14.040Z,29.60
2018-07-01T16:02:44.133Z,29.70
2018-07-01T16:05:16.171Z,29.90
2018-07-01T16:07:46.898Z,29.40
2018-07-01T16:10:43.339Z,29.20
2018-07-01T16:13:14.971Z,29.70
2018-07-01T16:16:07.567Z,29.60
2018-07-01T16:18:43.951Z,29.30
2018-07-01T16:21:17.511Z,29.40
2018-07-01T16:23:48.576Z,29.80
2018-07-01T16:29:02.408Z,30.30
2018-07-01T16:31:33.310Z,29.80
2018-07-01T16:34:05.142Z,29.60
2018-07-01T16:36:57.624Z,29.70
2018-07-01T16:39:30.712Z,29.40
2018-07-01T16:42:02.671Z,29.40
2018-07-01T16:44:44.579Z,29.70
2018-07-01T16:47:17.807Z,29.80
2018-07-01T16:49:48.005Z,29.60
2018-07-01T16:52:18.289Z,29.80
2018-07-01T16:54:48.452Z,29.30
2018-07-01T16:57:18.500Z,29.30
2018-07-01T16:59:51.047Z,29.30
2018-07-01T17:02:32.187Z,29.30
2018-07-01T17:05:02.647Z,29.40
2018-07-01T17:07:32.836Z,29.30
2018-07-01T17:10:15.025Z,29.50
2018-07-01T17:12:45.886Z,29.60
2018-07-01T17:15:33.648Z,29.60
2018-07-01T17:18:18.035Z,29.50
2018-07-01T17:21:14.371Z,29.40
2018-07-01T17:23:52.284Z,29.00
2018-07-01T17:26:22.672Z,28.40
2018-07-01T17:28:53.244Z,28.10
2018-07-01T17:31:29.946Z,28.30
2018-07-01T17:34:00.473Z,27.90
2018-07-01T17:36:30.693Z,28.10
2018-07-01T17:39:02.415Z,28.30
2018-07-01T17:41:44.786Z,28.20
2018-07-01T17:44:15.653Z,27.90
2018-07-01T17:46:49.469Z,27.80
2018-07-01T17:49:21.164Z,27.60
2018-07-01T17:51:51.500Z,27.30
2018-07-01T17:54:23.074Z,27.00
2018-07-01T17:56:53.167Z,26.90
2018-07-01T17:59:23.102Z,27.00
2018-07-01T18:01:52.976Z,27.00
2018-07-01T18:04:24.136Z,26.90
2018-07-01T18:06:54.361Z,26.50
2018-07-01T18:09:24.340Z,26.30
2018-07-01T18:12:00.072Z,26.20
2018-07-01T18:14:30.772Z,26.00
2018-07-01T18:17:00.698Z,26.00
2018-07-01T18:19:34.684Z,25.80
2018-07-01T18:22:21.724Z,25.80
2018-07-01T18:24:53.940Z,25.70
2018-07-01T18:27:14.615Z,25.50
2018-07-01T18:29:54.796Z,25.40
2018-07-01T18:32:29.665Z,25.40
2018-07-01T18:34:59.714Z,25.30
2018-07-01T18:37:29.659Z,25.20
2018-07-01T18:39:59.849Z,25.10
2018-07-01T18:42:32.541Z,25.00
2018-07-01T18:45:02.343Z,25.00
2018-07-01T18:47:32.300Z,24.90
2018-07-01T18:50:04.366Z,24.70
2018-07-01T18:52:35.688Z,24.50
2018-07-01T18:55:05.704Z,24.60
2018-07-01T18:57:36.253Z,24.50
2018-07-01T19:00:12.492Z,24.40
2018-07-01T19:02:43.971Z,24.30
2018-07-01T19:05:14.145Z,24.20
2018-07-01T19:07:44.702Z,24.20
2018-07-01T19:10:14.865Z,24.20
2018-07-01T19:12:45.678Z,24.10
2018-07-01T19:15:16.825Z,24.00
2018-07-01T19:17:47.100Z,23.90
2018-07-01T19:20:17.107Z,23.80
2018-07-01T19:22:47.368Z,23.80
2018-07-01T19:25:25.091Z,23.70
2018-07-01T19:27:58.339Z,23.60
2018-07-01T19:34:59.799Z,23.50
2018-07-01T19:37:29.793Z,23.40
2018-07-01T19:40:00.278Z,23.30
2018-07-01T19:42:42.299Z,23.10
2018-07-01T19:48:40.202Z,23.10
2018-07-01T19:51:12.756Z,23.00
2018-07-01T19:59:57.682Z,22.70
2018-07-01T20:05:37.000Z,22.50
2018-07-01T20:08:08.294Z,22.40
2018-07-01T20:10:39.591Z,22.60
2018-07-01T20:13:13.066Z,22.50
2018-07-01T20:18:47.723Z,22.40
2018-07-01T20:21:17.903Z,22.20
2018-07-01T20:26:43.727Z,22.40
2018-07-01T20:29:18.807Z,22.30
2018-07-01T20:31:49.057Z,22.20
2018-07-01T20:34:32.807Z,22.20
2018-07-01T20:37:03.250Z,22.20
2018-07-01T20:39:33.391Z,22.20
2018-07-01T20:42:14.509Z,21.90
2018-07-01T20:44:52.314Z,21.90
2018-07-01T20:47:34.428Z,21.90
2018-07-01T20:50:52.057Z,21.90
2018-07-01T20:53:26.181Z,21.90
2018-07-01T20:55:57.646Z,21.70
2018-07-01T20:58:36.909Z,21.70
2018-07-01T21:01:08.760Z,21.70
2018-07-01T21:03:38.678Z,21.50
2018-07-01T21:06:08.796Z,21.40
2018-07-01T21:08:41.033Z,21.40
2018-07-01T21:11:14.713Z,21.40
2018-07-01T21:13:45.995Z,21.20
2018-07-01T21:16:15.931Z,21.20
2018-07-01T21:18:46.112Z,21.20
2018-07-01T21:21:16.067Z,21.10
2018-07-01T21:23:46.010Z,21.10
2018-07-01T21:26:16.013Z,21.00
2018-07-01T21:28:46.029Z,20.90
2018-07-01T21:31:16.535Z,20.80
2018-07-01T21:33:49.917Z,20.50
2018-07-01T21:36:25.210Z,19.90
2018-07-01T21:38:59.231Z,19.50
2018-07-01T21:41:29.738Z,19.30
2018-07-01T21:44:14.480Z,19.10
2018-07-01T21:46:44.350Z,18.80
2018-07-01T21:49:14.254Z,18.80
2018-07-01T21:51:47.841Z,18.60
2018-07-01T22:09:19.186Z,18.30
2018-07-01T22:15:15.669Z,17.80
2018-07-01T22:47:43.713Z,17.60
2018-07-01T22:50:37.181Z,17.40
2018-07-01T22:53:28.233Z,17.40
2018-07-01T22:55:59.634Z,17.30
2018-07-01T22:58:31.055Z,17.30
2018-07-01T23:01:13.401Z,17.30
2018-07-01T23:03:56.607Z,17.20
2018-07-01T23:17:40.258Z,17.20
2018-07-01T23:20:23.631Z,16.90
2018-07-01T23:23:09.650Z,17.00
2018-07-01T23:25:40.447Z,16.80
2018-07-01T23:28:10.643Z,16.60
2018-07-01T23:30:40.805Z,16.60
2018-07-01T23:33:10.880Z,16.60
2018-07-01T23:35:42.100Z,16.50
2018-07-01T23:43:09.495Z,16.30
2018-07-01T23:45:40.312Z,16.10
2018-07-01T23:48:12.242Z,16.00
2018-07-01T23:50:52.932Z,16.00
2018-07-01T23:53:33.381Z,16.00
2018-07-01T23:56:06.652Z,16.00
2018-07-01T23:58:39.497Z,16.00
